createdAt,value
2023-04-23T00:00:40.868Z,0.00
2023-04-23T00:01:40.874Z,0.00
2023-04-23T00:02:40.954Z,0.00
2023-04-23T00:03:41.101Z,0.00
2023-04-23T00:04:41.536Z,0.00
2023-04-23T00:05:40.862Z,0.00
2023-04-23T00:06:40.809Z,0.00
2023-04-23T00:07:40.846Z,0.00
2023-04-23T00:08:40.782Z,0.00
2023-04-23T00:09:40.785Z,0.00
2023-04-23T00:10:40.758Z,0.00
2023-04-23T00:11:40.748Z,0.00
2023-04-23T00:12:40.806Z,0.00
2023-04-23T00:13:40.762Z,0.00
2023-04-23T00:14:40.917Z,0.00
2023-04-23T00:15:40.704Z,0.00
2023-04-23T00:16:40.779Z,0.00
2023-04-23T00:17:40.750Z,0.00
2023-04-23T00:18:40.671Z,0.00
2023-04-23T00:19:40.679Z,0.00
2023-04-23T00:20:40.671Z,0.00
2023-04-23T00:21:40.651Z,0.00
2023-04-23T00:22:40.670Z,0.00
2023-04-23T00:23:40.635Z,0.00
2023-04-23T00:24:40.803Z,0.00
2023-04-23T00:25:40.616Z,0.00
2023-04-23T00:26:40.606Z,0.00
2023-04-23T00:27:40.600Z,0.00
2023-04-23T00:28:40.625Z,0.00
2023-04-23T00:29:40.588Z,0.00
2023-04-23T00:30:40.587Z,0.00
2023-04-23T00:31:40.598Z,0.00
2023-04-23T00:32:40.613Z,0.00
2023-04-23T00:33:40.578Z,0.00
2023-04-23T00:34:40.646Z,0.00
2023-04-23T00:35:40.530Z,0.00
2023-04-23T00:36:40.512Z,0.00
2023-04-23T00:37:40.543Z,0.00
2023-04-23T00:38:40.500Z,0.00
2023-04-23T00:39:40.484Z,0.00
2023-04-23T00:40:40.455Z,0.00
2023-04-23T00:41:40.461Z,0.00
2023-04-23T00:42:40.507Z,0.00
2023-04-23T00:43:40.439Z,0.00
2023-04-23T00:44:40.807Z,0.00
2023-04-23T00:45:40.456Z,0.00
2023-04-23T00:46:40.406Z,0.00
2023-04-23T00:47:40.433Z,0.00
2023-04-23T00:48:40.379Z,0.00
2023-04-23T00:49:40.436Z,0.00
2023-04-23T00:50:40.354Z,0.00
2023-04-23T00:51:40.359Z,0.00
2023-04-23T00:52:40.342Z,0.00
2023-04-23T00:53:40.377Z,0.00
2023-04-23T00:54:40.493Z,0.00
2023-04-23T00:55:40.310Z,0.00
2023-04-23T00:56:40.308Z,0.00
2023-04-23T00:57:40.289Z,0.00
2023-04-23T00:58:40.319Z,0.00
2023-04-23T00:59:40.278Z,0.00
2023-04-23T01:00:40.275Z,0.00
2023-04-23T01:01:40.347Z,0.00
2023-04-23T01:02:40.370Z,0.00
2023-04-23T01:03:40.340Z,0.00
2023-04-23T01:04:40.507Z,0.00
2023-04-23T01:05:40.220Z,0.00
2023-04-23T01:06:40.201Z,0.00
2023-04-23T01:07:40.244Z,0.00
2023-04-23T01:08:40.251Z,0.00
2023-04-23T01:09:40.222Z,0.00
2023-04-23T01:10:40.162Z,0.00
2023-04-23T01:11:40.163Z,0.00
2023-04-23T01:12:40.135Z,0.00
2023-04-23T01:13:40.177Z,0.00
2023-04-23T01:14:40.312Z,0.00
2023-04-23T01:15:40.107Z,0.00
2023-04-23T01:16:40.131Z,0.00
2023-04-23T01:17:40.140Z,0.00
2023-04-23T01:18:40.126Z,0.00
2023-04-23T01:19:40.076Z,0.00
2023-04-23T01:20:40.082Z,0.00
2023-04-23T01:21:40.068Z,0.00
2023-04-23T01:22:40.045Z,0.00
2023-04-23T01:23:40.103Z,0.00
2023-04-23T01:24:40.198Z,0.00
2023-04-23T01:25:40.020Z,0.00
2023-04-23T01:26:40.057Z,0.00
2023-04-23T01:27:39.995Z,0.00
2023-04-23T01:28:40.020Z,0.00
2023-04-23T01:29:39.982Z,0.00
2023-04-23T01:30:39.983Z,0.00
2023-04-23T01:31:39.965Z,0.00
2023-04-23T01:32:39.997Z,0.00
2023-04-23T01:33:39.951Z,0.00
2023-04-23T01:34:40.094Z,0.00
2023-04-23T01:35:40.917Z,0.00
2023-04-23T01:36:39.910Z,0.00
2023-04-23T01:37:39.900Z,0.00
2023-04-23T01:38:39.896Z,0.00
2023-04-23T01:39:39.891Z,0.00
2023-04-23T01:40:39.884Z,0.00
2023-04-23T01:41:39.844Z,0.00
2023-04-23T01:42:39.857Z,0.00
2023-04-23T01:43:39.845Z,0.00
2023-04-23T01:44:40.070Z,0.00
2023-04-23T01:45:39.804Z,0.00
2023-04-23T01:46:39.853Z,0.00
2023-04-23T01:47:39.846Z,0.00
2023-04-23T01:48:39.798Z,0.00
2023-04-23T01:49:39.769Z,0.00
2023-04-23T01:50:39.756Z,0.00
2023-04-23T01:51:39.752Z,0.00
2023-04-23T01:52:39.742Z,0.00
2023-04-23T01:53:39.754Z,0.00
2023-04-23T01:54:40.020Z,0.00
2023-04-23T01:55:39.720Z,0.00
2023-04-23T01:56:39.702Z,0.00
2023-04-23T01:57:39.685Z,0.00
2023-04-23T01:58:39.713Z,0.00
2023-04-23T01:59:39.673Z,0.00
2023-04-23T02:00:39.658Z,0.00
2023-04-23T02:01:39.696Z,0.00
2023-04-23T02:02:39.769Z,0.00
2023-04-23T02:03:39.791Z,0.00
2023-04-23T02:04:39.950Z,0.00
2023-04-23T02:05:40.612Z,0.00
2023-04-23T02:06:39.638Z,0.00
2023-04-23T02:07:39.588Z,0.00
2023-04-23T02:08:39.607Z,0.00
2023-04-23T02:09:39.573Z,0.00
2023-04-23T02:10:39.560Z,0.00
2023-04-23T02:11:39.563Z,0.00
2023-04-23T02:12:39.553Z,0.00
2023-04-23T02:13:39.573Z,0.00
2023-04-23T02:14:39.742Z,0.00
2023-04-23T02:15:39.512Z,0.00
2023-04-23T02:16:39.524Z,0.00
2023-04-23T02:17:39.518Z,0.00
2023-04-23T02:18:39.499Z,0.00
2023-04-23T02:19:39.463Z,0.00
2023-04-23T02:20:39.463Z,0.00
2023-04-23T02:21:39.463Z,0.00
2023-04-23T02:22:39.435Z,0.00
2023-04-23T02:23:39.451Z,0.00
2023-04-23T02:24:39.725Z,0.00
2023-04-23T02:25:39.427Z,0.00
2023-04-23T02:26:39.409Z,0.00
2023-04-23T02:27:39.402Z,0.00
2023-04-23T02:28:39.421Z,0.00
2023-04-23T02:29:39.380Z,0.00
2023-04-23T02:30:39.369Z,0.00
2023-04-23T02:31:39.429Z,0.00
2023-04-23T02:32:39.368Z,0.00
2023-04-23T02:33:39.397Z,0.00
2023-04-23T02:34:39.617Z,0.00
2023-04-23T02:35:39.322Z,0.00
2023-04-23T02:36:40.319Z,0.00
2023-04-23T02:37:39.293Z,0.00
2023-04-23T02:38:39.303Z,0.00
2023-04-23T02:39:39.506Z,0.00
2023-04-23T02:40:39.264Z,0.00
2023-04-23T02:41:39.245Z,0.00
2023-04-23T02:42:40.784Z,0.00
2023-04-23T02:43:39.252Z,0.00
2023-04-23T02:44:39.536Z,0.00
2023-04-23T02:45:39.215Z,0.00
2023-04-23T02:46:39.254Z,0.00
2023-04-23T02:47:39.207Z,0.00
2023-04-23T02:48:39.212Z,0.00
2023-04-23T02:49:39.179Z,0.00
2023-04-23T02:50:39.158Z,0.00
2023-04-23T02:51:39.154Z,0.00
2023-04-23T02:52:39.183Z,0.00
2023-04-23T02:53:39.172Z,0.00
2023-04-23T02:54:39.315Z,0.00
2023-04-23T02:55:39.129Z,0.00
2023-04-23T02:56:39.100Z,0.00
2023-04-23T02:57:39.089Z,0.00
2023-04-23T02:58:39.120Z,0.00
2023-04-23T02:59:39.079Z,0.00
2023-04-23T03:00:39.087Z,0.00
2023-04-23T03:01:39.054Z,0.00
2023-04-23T03:02:39.199Z,0.00
2023-04-23T03:03:39.213Z,0.00
2023-04-23T03:04:39.058Z,0.00
2023-04-23T03:05:39.026Z,0.00
2023-04-23T03:06:38.996Z,0.00
2023-04-23T03:07:38.984Z,0.00
2023-04-23T03:08:38.992Z,0.00
2023-04-23T03:09:38.974Z,0.00
2023-04-23T03:10:39.007Z,0.00
2023-04-23T03:11:38.973Z,0.00
2023-04-23T03:12:38.951Z,0.00
2023-04-23T03:13:38.946Z,0.00
2023-04-23T03:14:39.107Z,0.00
2023-04-23T03:15:38.919Z,0.00
2023-04-23T03:16:38.926Z,0.00
2023-04-23T03:17:39.010Z,0.00
2023-04-23T03:18:39.903Z,0.00
2023-04-23T03:19:38.868Z,0.00
2023-04-23T03:20:38.872Z,0.00
2023-04-23T03:21:39.847Z,0.00
2023-04-23T03:22:38.859Z,0.00
2023-04-23T03:23:38.846Z,0.00
2023-04-23T03:24:38.985Z,0.00
2023-04-23T03:25:38.837Z,0.00
2023-04-23T03:26:38.794Z,0.00
2023-04-23T03:27:40.279Z,0.00
2023-04-23T03:28:39.802Z,0.00
2023-04-23T03:29:38.765Z,0.00
2023-04-23T03:30:38.805Z,0.00
2023-04-23T03:31:38.759Z,0.00
2023-04-23T03:32:38.871Z,0.00
2023-04-23T03:33:38.763Z,0.00
2023-04-23T03:34:38.741Z,0.00
2023-04-23T03:35:38.700Z,0.00
2023-04-23T03:36:38.711Z,0.00
2023-04-23T03:37:38.678Z,0.00
2023-04-23T03:38:38.686Z,0.00
2023-04-23T03:39:38.674Z,0.00
2023-04-23T03:40:38.652Z,0.00
2023-04-23T03:41:38.686Z,0.00
2023-04-23T03:42:38.641Z,0.00
2023-04-23T03:43:38.651Z,0.00
2023-04-23T03:44:38.784Z,0.00
2023-04-23T03:45:38.620Z,4.00
2023-04-23T03:46:38.785Z,4.00
2023-04-23T03:47:38.639Z,0.00
2023-04-23T03:48:38.647Z,4.00
2023-04-23T03:49:38.556Z,4.00
2023-04-23T03:50:38.577Z,4.00
2023-04-23T03:51:38.566Z,4.00
2023-04-23T03:52:38.525Z,8.00
2023-04-23T03:53:38.541Z,4.00
2023-04-23T03:54:38.648Z,8.00
2023-04-23T03:55:38.509Z,8.00
2023-04-23T03:56:38.494Z,8.00
2023-04-23T03:57:38.498Z,12.00
2023-04-23T03:58:38.510Z,12.00
2023-04-23T03:59:38.471Z,16.00
2023-04-23T04:00:38.454Z,20.00
2023-04-23T04:01:38.469Z,20.00
2023-04-23T04:02:38.584Z,24.00
2023-04-23T04:03:38.683Z,28.00
2023-04-23T04:04:38.527Z,32.00
2023-04-23T04:05:38.521Z,36.00
2023-04-23T04:06:38.395Z,40.00
2023-04-23T04:07:38.377Z,44.00
2023-04-23T04:08:38.384Z,48.00
2023-04-23T04:09:38.369Z,52.00
2023-04-23T04:10:38.360Z,52.00
2023-04-23T04:11:38.360Z,60.00
2023-04-23T04:12:38.360Z,68.00
2023-04-23T04:13:38.343Z,72.00
2023-04-23T04:14:38.362Z,80.00
2023-04-23T04:15:38.304Z,84.00
2023-04-23T04:16:38.290Z,92.00
2023-04-23T04:17:38.325Z,100.00
2023-04-23T04:18:38.296Z,108.00
2023-04-23T04:19:38.256Z,116.00
2023-04-23T04:20:38.250Z,124.00
2023-04-23T04:21:38.248Z,136.00
2023-04-23T04:22:38.249Z,144.00
2023-04-23T04:23:38.269Z,156.00
2023-04-23T04:24:38.234Z,168.00
2023-04-23T04:25:38.203Z,176.00
2023-04-23T04:26:38.192Z,188.00
2023-04-23T04:27:38.196Z,196.00
2023-04-23T04:28:38.193Z,204.00
2023-04-23T04:29:38.162Z,204.00
2023-04-23T04:30:38.163Z,208.00
2023-04-23T04:31:38.143Z,212.00
2023-04-23T04:32:38.158Z,224.00
2023-04-23T04:33:38.143Z,232.00
2023-04-23T04:34:38.235Z,244.00
2023-04-23T04:35:38.111Z,256.00
2023-04-23T04:36:38.088Z,268.00
2023-04-23T04:37:38.144Z,284.00
2023-04-23T04:38:38.135Z,300.00
2023-04-23T04:39:38.055Z,320.00
2023-04-23T04:40:38.068Z,344.00
2023-04-23T04:41:38.041Z,372.00
2023-04-23T04:42:38.023Z,400.00
2023-04-23T04:43:38.027Z,436.00
2023-04-23T04:44:38.016Z,476.00
2023-04-23T04:45:38.011Z,508.00
2023-04-23T04:46:38.055Z,540.00
2023-04-23T04:47:38.021Z,564.00
2023-04-23T04:48:37.993Z,584.00
2023-04-23T04:49:37.976Z,604.00
2023-04-23T04:50:37.979Z,620.00
2023-04-23T04:51:37.940Z,636.00
2023-04-23T04:52:37.937Z,656.00
2023-04-23T04:53:37.937Z,676.00
2023-04-23T04:54:37.903Z,692.00
2023-04-23T04:55:37.893Z,704.00
2023-04-23T04:56:37.894Z,704.00
2023-04-23T04:57:37.891Z,688.00
2023-04-23T04:58:37.878Z,684.00
2023-04-23T04:59:37.871Z,688.00
2023-04-23T05:00:37.869Z,688.00
2023-04-23T05:01:37.882Z,700.00
2023-04-23T05:02:37.919Z,704.00
2023-04-23T05:03:38.146Z,716.00
2023-04-23T05:04:37.810Z,728.00
2023-04-23T05:05:37.795Z,744.00
2023-04-23T05:06:37.861Z,776.00
2023-04-23T05:07:37.775Z,808.00
2023-04-23T05:08:37.767Z,840.00
2023-04-23T05:09:37.797Z,856.00
2023-04-23T05:10:37.742Z,864.00
2023-04-23T05:11:37.734Z,876.00
2023-04-23T05:12:37.718Z,904.00
2023-04-23T05:13:38.712Z,932.00
2023-04-23T05:14:37.807Z,968.00
2023-04-23T05:15:37.703Z,996.00
2023-04-23T05:16:37.723Z,1028.00
2023-04-23T05:17:37.689Z,1064.00
2023-04-23T05:18:37.671Z,1104.00
2023-04-23T05:19:37.670Z,1152.00
2023-04-23T05:20:37.649Z,1196.00
2023-04-23T05:21:37.638Z,1252.00
2023-04-23T05:22:37.625Z,1328.00
2023-04-23T05:23:37.625Z,1432.00
2023-04-23T05:24:37.625Z,1568.00
2023-04-23T05:25:37.593Z,1700.00
2023-04-23T05:26:37.580Z,1800.00
2023-04-23T05:27:37.583Z,1900.00
2023-04-23T05:28:37.573Z,2012.00
2023-04-23T05:29:37.571Z,2136.00
2023-04-23T05:30:37.552Z,2264.00
2023-04-23T05:31:37.630Z,2392.00
2023-04-23T05:32:37.551Z,2516.00
2023-04-23T05:33:49.397Z,2636.00
2023-04-23T05:34:39.828Z,2752.00
2023-04-23T05:35:37.496Z,2884.00
2023-04-23T05:36:37.488Z,3060.00
2023-04-23T05:37:37.461Z,3260.00
2023-04-23T05:38:37.457Z,3452.00
2023-04-23T05:39:37.462Z,3628.00
2023-04-23T05:40:37.437Z,3792.00
2023-04-23T05:41:37.429Z,3932.00
2023-04-23T05:42:37.416Z,4052.00
2023-04-23T05:43:37.397Z,4172.00
2023-04-23T05:44:37.408Z,4292.00
2023-04-23T05:45:37.379Z,4436.00
2023-04-23T05:46:37.425Z,4544.00
2023-04-23T05:47:37.674Z,4644.00
2023-04-23T05:48:37.352Z,4748.00
2023-04-23T05:49:37.370Z,4892.00
2023-04-23T05:50:37.326Z,5064.00
2023-04-23T05:51:37.318Z,5156.00
2023-04-23T05:53:03.732Z,5088.00
2023-04-23T05:53:37.308Z,5168.00
2023-04-23T05:54:37.324Z,5316.00
2023-04-23T05:55:37.281Z,5544.00
2023-04-23T05:56:37.269Z,5748.00
2023-04-23T05:57:37.266Z,5840.00
2023-04-23T05:58:37.238Z,5784.00
2023-04-23T05:59:38.258Z,5704.00
2023-04-23T06:00:37.239Z,5636.00
2023-04-23T06:01:37.220Z,5540.00
2023-04-23T06:02:37.298Z,5556.00
2023-04-23T06:03:37.448Z,5652.00
2023-04-23T06:04:37.523Z,5940.00
2023-04-23T06:05:37.222Z,5968.00
2023-04-23T06:06:37.172Z,6336.00
2023-04-23T06:07:37.150Z,6800.00
2023-04-23T06:08:37.153Z,6984.00
2023-04-23T06:09:37.172Z,6720.00
2023-04-23T06:10:37.132Z,7036.00
2023-04-23T06:11:37.122Z,7352.00
2023-04-23T06:12:37.143Z,7608.00
2023-04-23T06:13:37.093Z,7360.00
2023-04-23T06:14:37.138Z,6944.00
2023-04-23T06:15:37.073Z,6296.00
2023-04-23T06:16:37.068Z,6244.00
2023-04-23T06:17:37.120Z,6160.00
2023-04-23T06:18:37.039Z,6084.00
2023-04-23T06:19:37.075Z,5972.00
2023-04-23T06:20:37.022Z,6020.00
2023-04-23T06:21:37.028Z,6252.00
2023-04-23T06:22:36.994Z,6308.00
2023-04-23T06:23:37.018Z,6596.00
2023-04-23T06:24:36.985Z,6848.00
2023-04-23T06:25:36.988Z,6428.00
2023-04-23T06:26:36.969Z,6924.00
2023-04-23T06:27:36.982Z,6776.00
2023-04-23T06:28:36.973Z,6792.00
2023-04-23T06:29:36.939Z,6700.00
2023-04-23T06:30:36.920Z,6740.00
2023-04-23T06:31:36.953Z,6716.00
2023-04-23T06:32:36.944Z,6516.00
2023-04-23T06:33:36.933Z,6876.00
2023-04-23T06:34:43.988Z,6856.00
2023-04-23T06:35:37.885Z,6704.00
2023-04-23T06:36:36.864Z,6372.00
2023-04-23T06:37:36.892Z,6536.00
2023-04-23T06:38:36.881Z,6704.00
2023-04-23T06:39:36.830Z,6844.00
2023-04-23T06:40:36.839Z,6832.00
2023-04-23T06:41:36.814Z,6360.00
2023-04-23T06:42:36.799Z,7072.00
2023-04-23T06:43:36.798Z,7860.00
2023-04-23T06:44:36.783Z,8612.00
2023-04-23T06:45:36.812Z,8548.00
2023-04-23T06:46:36.833Z,7256.00
2023-04-23T06:47:36.782Z,8304.00
2023-04-23T06:48:36.765Z,8256.00
2023-04-23T06:49:36.726Z,8288.00
2023-04-23T06:50:36.711Z,9056.00
2023-04-23T06:51:36.700Z,8876.00
2023-04-23T06:52:36.703Z,7640.00
2023-04-23T06:53:36.689Z,8536.00
2023-04-23T06:54:36.700Z,8556.00
2023-04-23T06:55:36.672Z,8236.00
2023-04-23T06:56:36.658Z,7920.00
2023-04-23T06:57:36.648Z,7024.00
2023-04-23T06:58:36.644Z,6700.00
2023-04-23T06:59:36.660Z,7716.00
2023-04-23T07:00:36.639Z,7412.00
2023-04-23T07:01:36.611Z,7956.00
2023-04-23T07:02:36.789Z,7440.00
2023-04-23T07:03:36.629Z,7944.00
2023-04-23T07:04:36.760Z,7528.00
2023-04-23T07:05:36.580Z,7804.00
2023-04-23T07:06:36.567Z,7304.00
2023-04-23T07:07:36.553Z,7412.00
2023-04-23T07:08:36.542Z,6632.00
2023-04-23T07:09:36.549Z,7704.00
2023-04-23T07:10:36.521Z,6716.00
2023-04-23T07:11:36.531Z,6576.00
2023-04-23T07:12:36.505Z,7180.00
2023-04-23T07:13:36.496Z,6444.00
2023-04-23T07:14:36.498Z,6512.00
2023-04-23T07:15:36.542Z,7760.00
2023-04-23T07:16:36.522Z,7820.00
2023-04-23T07:17:36.482Z,7728.00
2023-04-23T07:18:36.450Z,7572.00
2023-04-23T07:19:36.493Z,6372.00
2023-04-23T07:20:36.440Z,7680.00
2023-04-23T07:21:36.425Z,6960.00
2023-04-23T07:22:36.409Z,7408.00
2023-04-23T07:23:36.405Z,7784.00
2023-04-23T07:24:36.434Z,6552.00
2023-04-23T07:25:36.549Z,6548.00
2023-04-23T07:26:36.405Z,6956.00
2023-04-23T07:27:36.387Z,6856.00
2023-04-23T07:28:36.376Z,6640.00
2023-04-23T07:29:36.372Z,7968.00
2023-04-23T07:30:36.355Z,6500.00
2023-04-23T07:31:36.353Z,6272.00
2023-04-23T07:32:37.371Z,7800.00
2023-04-23T07:33:36.306Z,6764.00
2023-04-23T07:34:37.890Z,7912.00
2023-04-23T07:35:37.299Z,7920.00
2023-04-23T07:36:36.286Z,8088.00
2023-04-23T07:37:36.271Z,6924.00
2023-04-23T07:38:36.278Z,8320.00
2023-04-23T07:39:36.294Z,7212.00
2023-04-23T07:40:36.318Z,7704.00
2023-04-23T07:41:36.226Z,9392.00
2023-04-23T07:42:36.219Z,9080.00
2023-04-23T07:43:36.384Z,10316.00
2023-04-23T07:44:36.217Z,11200.00
2023-04-23T07:45:36.194Z,10260.00
2023-04-23T07:46:36.195Z,11464.00
2023-04-23T07:47:36.208Z,11608.00
2023-04-23T07:48:36.167Z,11500.00
2023-04-23T07:49:36.169Z,10792.00
2023-04-23T07:50:36.152Z,11596.00
2023-04-23T07:51:36.188Z,11344.00
2023-04-23T07:52:36.143Z,10984.00
2023-04-23T07:53:36.115Z,10884.00
2023-04-23T07:54:36.121Z,11464.00
2023-04-23T07:55:36.184Z,11848.00
2023-04-23T07:56:36.084Z,11452.00
2023-04-23T07:57:36.079Z,11292.00
2023-04-23T07:58:36.111Z,11460.00
2023-04-23T07:59:36.068Z,11164.00
2023-04-23T08:00:36.081Z,10080.00
2023-04-23T08:01:36.046Z,9792.00
2023-04-23T08:02:36.172Z,9584.00
2023-04-23T08:03:36.229Z,9528.00
2023-04-23T08:04:36.168Z,9500.00
2023-04-23T08:05:36.037Z,9528.00
2023-04-23T08:06:36.012Z,9868.00
2023-04-23T08:07:35.978Z,10708.00
2023-04-23T08:08:35.989Z,11184.00
2023-04-23T08:09:35.974Z,11228.00
2023-04-23T08:10:35.948Z,8924.00
2023-04-23T08:11:35.935Z,10852.00
2023-04-23T08:12:35.976Z,11088.00
2023-04-23T08:13:35.912Z,10824.00
2023-04-23T08:14:36.004Z,9712.00
2023-04-23T08:15:35.913Z,10252.00
2023-04-23T08:16:38.664Z,10048.00
2023-04-23T08:17:36.893Z,10356.00
2023-04-23T08:18:35.860Z,10748.00
2023-04-23T08:19:35.884Z,11588.00
2023-04-23T08:20:35.838Z,10520.00
2023-04-23T08:21:35.835Z,11960.00
2023-04-23T08:22:35.822Z,11504.00
2023-04-23T08:23:35.798Z,9916.00
2023-04-23T08:24:35.841Z,9740.00
2023-04-23T08:25:35.782Z,9440.00
2023-04-23T08:26:35.786Z,9580.00
2023-04-23T08:27:35.760Z,10932.00
2023-04-23T08:28:35.764Z,11104.00
2023-04-23T08:29:35.774Z,11716.00
2023-04-23T08:30:35.729Z,12108.00
2023-04-23T08:31:35.771Z,10412.00
2023-04-23T08:32:35.759Z,10772.00
2023-04-23T08:33:35.706Z,11020.00
2023-04-23T08:34:35.957Z,10372.00
2023-04-23T08:35:36.680Z,10060.00
2023-04-23T08:36:35.680Z,11776.00
2023-04-23T08:37:35.657Z,11956.00
2023-04-23T08:38:35.671Z,11592.00
2023-04-23T08:39:37.969Z,11180.00
2023-04-23T08:40:35.627Z,10880.00
2023-04-23T08:41:35.619Z,10748.00
2023-04-23T08:42:35.608Z,10576.00
2023-04-23T08:43:35.596Z,10312.00
2023-04-23T08:44:35.611Z,10088.00
2023-04-23T08:45:35.581Z,9208.00
2023-04-23T08:46:35.610Z,8404.00
2023-04-23T08:47:35.626Z,8232.00
2023-04-23T08:48:35.557Z,8448.00
2023-04-23T08:49:35.557Z,10664.00
2023-04-23T08:50:35.522Z,10688.00
2023-04-23T08:51:35.544Z,8540.00
2023-04-23T08:52:35.510Z,8328.00
2023-04-23T08:53:35.495Z,8576.00
2023-04-23T08:54:35.504Z,8584.00
2023-04-23T08:55:35.470Z,8572.00
2023-04-23T08:56:35.467Z,8784.00
2023-04-23T08:57:35.502Z,9824.00
2023-04-23T08:58:35.444Z,8908.00
2023-04-23T08:59:35.455Z,8828.00
2023-04-23T09:00:35.486Z,10112.00
2023-04-23T09:01:35.420Z,11064.00
2023-04-23T09:02:35.523Z,9392.00
2023-04-23T09:03:35.482Z,11296.00
2023-04-23T09:04:35.417Z,11668.00
2023-04-23T09:05:35.378Z,12452.00
2023-04-23T09:06:35.361Z,13064.00
2023-04-23T09:07:35.345Z,13764.00
2023-04-23T09:08:35.344Z,13428.00
2023-04-23T09:09:35.369Z,13012.00
2023-04-23T09:10:35.330Z,12008.00
2023-04-23T09:11:35.351Z,10972.00
2023-04-23T09:12:35.305Z,11208.00
2023-04-23T09:13:35.295Z,12532.00
2023-04-23T09:14:35.320Z,10340.00
2023-04-23T09:15:35.286Z,10700.00
2023-04-23T09:16:35.280Z,11492.00
2023-04-23T09:17:35.276Z,12248.00
2023-04-23T09:18:35.244Z,14656.00
2023-04-23T09:19:35.254Z,14912.00
2023-04-23T09:20:35.225Z,14784.00
2023-04-23T09:21:35.226Z,14304.00
2023-04-23T09:22:35.213Z,12624.00
2023-04-23T09:23:35.198Z,13464.00
2023-04-23T09:24:35.219Z,14212.00
2023-04-23T09:25:35.181Z,16480.00
2023-04-23T09:26:35.175Z,17024.00
2023-04-23T09:27:35.201Z,14944.00
2023-04-23T09:28:35.154Z,13792.00
2023-04-23T09:29:35.165Z,14060.00
2023-04-23T09:30:35.124Z,13036.00
2023-04-23T09:31:35.389Z,12288.00
2023-04-23T09:32:35.131Z,13184.00
2023-04-23T09:33:35.107Z,13392.00
2023-04-23T09:34:35.087Z,12132.00
2023-04-23T09:35:35.079Z,11728.00
2023-04-23T09:36:35.087Z,11344.00
2023-04-23T09:37:35.072Z,10536.00
2023-04-23T09:38:35.069Z,10176.00
2023-04-23T09:39:35.034Z,10048.00
2023-04-23T09:40:35.042Z,10180.00
2023-04-23T09:41:35.037Z,10052.00
2023-04-23T09:42:35.009Z,9884.00
2023-04-23T09:43:34.995Z,9836.00
2023-04-23T09:44:34.992Z,9908.00
2023-04-23T09:45:35.023Z,9884.00
2023-04-23T09:46:34.974Z,9384.00
2023-04-23T09:47:35.009Z,8716.00
2023-04-23T09:48:35.004Z,7972.00
2023-04-23T09:49:34.975Z,7444.00
2023-04-23T09:50:34.984Z,7316.00
2023-04-23T09:51:34.922Z,7468.00
2023-04-23T09:52:34.953Z,8120.00
2023-04-23T09:53:34.902Z,10756.00
2023-04-23T09:54:34.926Z,12448.00
2023-04-23T09:55:34.895Z,12856.00
2023-04-23T09:56:34.867Z,12712.00
2023-04-23T09:57:34.873Z,12376.00
2023-04-23T09:58:34.843Z,12116.00
2023-04-23T09:59:46.742Z,12068.00
2023-04-23T10:00:36.832Z,12112.00
2023-04-23T10:01:34.883Z,12372.00
2023-04-23T10:02:34.910Z,12536.00
2023-04-23T10:03:34.955Z,12636.00
2023-04-23T10:04:34.893Z,12664.00
2023-04-23T10:05:45.325Z,12712.00
2023-04-23T10:06:42.384Z,12772.00
2023-04-23T10:07:36.768Z,12912.00
2023-04-23T10:08:34.754Z,13156.00
2023-04-23T10:09:34.744Z,11496.00
2023-04-23T10:10:43.121Z,10480.00
2023-04-23T10:11:35.714Z,10256.00
2023-04-23T10:12:52.175Z,10200.00
2023-04-23T10:13:36.714Z,10468.00
2023-04-23T10:14:34.704Z,10216.00
2023-04-23T10:15:34.706Z,10156.00
2023-04-23T10:16:46.113Z,10188.00
2023-04-23T10:17:36.754Z,10460.00
2023-04-23T10:18:34.655Z,10640.00
2023-04-23T10:19:34.645Z,10480.00
2023-04-23T10:20:34.631Z,10160.00
2023-04-23T10:21:50.059Z,10332.00
2023-04-23T10:22:36.672Z,9448.00
2023-04-23T10:23:34.600Z,9224.00
2023-04-23T10:24:34.587Z,11984.00
2023-04-23T10:25:34.624Z,11884.00
2023-04-23T10:26:34.573Z,11600.00
2023-04-23T10:27:51.228Z,11676.00
2023-04-23T10:28:36.554Z,11640.00
2023-04-23T10:29:34.558Z,12120.00
2023-04-23T10:30:34.553Z,12012.00
2023-04-23T10:31:34.557Z,10544.00
2023-04-23T10:32:34.582Z,11600.00
2023-04-23T10:33:40.081Z,10936.00
2023-04-23T10:34:36.522Z,12212.00
2023-04-23T10:35:34.479Z,12588.00
2023-04-23T10:36:34.513Z,10348.00
2023-04-23T10:37:34.533Z,10052.00
2023-04-23T10:38:34.453Z,9928.00
2023-04-23T10:39:34.449Z,10288.00
2023-04-23T10:40:34.473Z,10248.00
2023-04-23T10:41:34.422Z,10380.00
2023-04-23T10:42:34.431Z,10616.00
2023-04-23T10:43:34.395Z,10868.00
2023-04-23T10:44:56.708Z,11208.00
2023-04-23T10:45:36.383Z,11764.00
2023-04-23T10:46:36.411Z,12576.00
2023-04-23T10:47:34.393Z,13428.00
2023-04-23T10:48:34.351Z,13996.00
2023-04-23T10:49:34.366Z,14240.00
2023-04-23T10:50:34.346Z,14360.00
2023-04-23T10:52:14.935Z,14608.00
2023-04-23T10:52:36.316Z,14692.00
2023-04-23T10:53:34.324Z,15108.00
2023-04-23T10:54:34.310Z,15744.00
2023-04-23T10:55:34.312Z,15808.00
2023-04-23T10:56:34.272Z,15936.00
2023-04-23T10:57:34.266Z,16288.00
2023-04-23T10:58:34.256Z,16672.00
2023-04-23T10:59:34.242Z,16864.00
2023-04-23T11:00:34.257Z,17312.00
2023-04-23T11:01:34.279Z,17568.00
2023-04-23T11:02:34.244Z,17376.00
2023-04-23T11:03:34.355Z,16480.00
2023-04-23T11:04:34.313Z,16000.00
2023-04-23T11:05:34.211Z,15352.00
2023-04-23T11:06:34.175Z,15124.00
2023-04-23T11:07:34.176Z,15016.00
2023-04-23T11:08:34.161Z,14824.00
2023-04-23T11:09:34.158Z,15032.00
2023-04-23T11:10:34.246Z,14640.00
2023-04-23T11:11:34.125Z,14524.00
2023-04-23T11:12:34.113Z,14344.00
2023-04-23T11:13:34.105Z,15904.00
2023-04-23T11:14:34.120Z,14536.00
2023-04-23T11:15:34.083Z,14104.00
2023-04-23T11:16:34.098Z,12996.00
2023-04-23T11:17:34.109Z,12780.00
2023-04-23T11:18:34.048Z,12940.00
2023-04-23T11:19:34.084Z,12124.00
2023-04-23T11:20:34.037Z,12112.00
2023-04-23T11:21:34.021Z,12668.00
2023-04-23T11:22:34.018Z,13432.00
2023-04-23T11:23:34.051Z,14036.00
2023-04-23T11:24:34.010Z,14408.00
2023-04-23T11:25:33.984Z,14432.00
2023-04-23T11:26:33.976Z,14676.00
2023-04-23T11:27:33.961Z,14860.00
2023-04-23T11:28:33.952Z,14920.00
2023-04-23T11:29:33.976Z,15648.00
2023-04-23T11:30:33.956Z,15744.00
2023-04-23T11:31:33.957Z,14384.00
2023-04-23T11:32:34.004Z,13404.00
2023-04-23T11:33:33.930Z,12312.00
2023-04-23T11:34:33.897Z,11368.00
2023-04-23T11:35:33.898Z,10768.00
2023-04-23T11:36:33.878Z,10240.00
2023-04-23T11:37:33.855Z,9780.00
2023-04-23T11:38:33.853Z,9352.00
2023-04-23T11:39:33.863Z,8924.00
2023-04-23T11:40:33.847Z,8696.00
2023-04-23T11:41:33.819Z,9252.00
2023-04-23T11:42:33.804Z,8360.00
2023-04-23T11:43:33.801Z,7960.00
2023-04-23T11:44:33.812Z,7440.00
2023-04-23T11:45:33.772Z,7312.00
2023-04-23T11:46:33.798Z,7756.00
2023-04-23T11:47:33.828Z,7844.00
2023-04-23T11:48:33.748Z,7288.00
2023-04-23T11:49:33.768Z,7612.00
2023-04-23T11:50:33.937Z,8180.00
2023-04-23T11:51:33.737Z,9200.00
2023-04-23T11:52:33.709Z,10320.00
2023-04-23T11:53:33.703Z,8908.00
2023-04-23T11:54:34.727Z,8976.00
2023-04-23T11:55:33.676Z,9080.00
2023-04-23T11:56:33.658Z,9376.00
2023-04-23T11:57:33.664Z,10556.00
2023-04-23T11:58:33.709Z,11692.00
2023-04-23T11:59:33.679Z,13632.00
2023-04-23T12:00:33.643Z,14464.00
2023-04-23T12:01:33.616Z,14696.00
2023-04-23T12:02:33.714Z,16480.00
2023-04-23T12:03:33.708Z,17600.00
2023-04-23T12:04:33.625Z,17824.00
2023-04-23T12:05:33.677Z,17408.00
2023-04-23T12:06:33.571Z,16864.00
2023-04-23T12:07:33.550Z,16608.00
2023-04-23T12:08:33.537Z,17472.00
2023-04-23T12:09:33.534Z,18400.00
2023-04-23T12:10:33.547Z,19488.00
2023-04-23T12:11:33.515Z,19424.00
2023-04-23T12:12:33.493Z,20224.00
2023-04-23T12:13:33.514Z,21248.00
2023-04-23T12:14:33.485Z,20672.00
2023-04-23T12:15:33.493Z,22720.00
2023-04-23T12:16:33.461Z,21568.00
2023-04-23T12:17:33.449Z,20736.00
2023-04-23T12:18:33.451Z,22752.00
2023-04-23T12:19:33.443Z,21472.00
2023-04-23T12:20:33.465Z,22592.00
2023-04-23T12:21:33.405Z,23840.00
2023-04-23T12:22:33.396Z,24160.00
2023-04-23T12:23:33.389Z,23776.00